Time;durP1;ratioP1;P1;durP2;ratioP2;P2;SDS_P1;SDS_P2;PMS_P1;PMS_P2;Temp;Humidity;BMP_temperature;BMP_pressure;BME280_temperature;BME280_humidity;BME280_pressure;Samples;Min_cycle;Max_cycle;Signal;HPM_P1;HPM_P2
2023/08/20 00:02:01;;;;;;;16.10;4.15;;;;;;;17.37;100.00;101910.72;5074613;28;20048;-67
2023/08/20 00:04:28;;;;;;;14.32;4.22;;;;;;;17.30;100.00;101908.97;5074282;28;20083;-68
2023/08/20 00:06:53;;;;;;;18.05;4.63;;;;;;;17.28;100.00;101905.44;5070598;28;20155;-68
2023/08/20 00:09:19;;;;;;;15.68;4.22;;;;;;;17.28;100.00;101913.47;5074433;28;20115;-68
2023/08/20 00:11:44;;;;;;;18.70;4.78;;;;;;;17.33;100.00;101907.19;5074079;28;20052;-67
2023/08/20 00:14:16;;;;;;;17.60;4.70;;;;;;;17.25;100.00;101901.00;5073919;28;20029;-67
2023/08/20 00:16:42;;;;;;;16.55;4.80;;;;;;;17.19;100.00;101899.25;5074304;28;20107;-68
2023/08/20 00:19:08;;;;;;;14.15;4.20;;;;;;;17.11;100.00;101894.84;5074245;28;20041;-68
2023/08/20 00:21:34;;;;;;;15.82;4.40;;;;;;;17.12;100.00;101901.97;5073988;28;20074;-68
2023/08/20 00:24:00;;;;;;;18.50;5.18;;;;;;;17.07;100.00;101889.53;5074044;28;20032;-68
2023/08/20 00:26:26;;;;;;;18.40;5.20;;;;;;;16.98;100.00;101894.94;5073937;28;20029;-68
2023/08/20 00:28:51;;;;;;;15.52;4.85;;;;;;;16.97;100.00;101892.28;5073733;28;20490;-68
2023/08/20 00:31:16;;;;;;;18.42;5.25;;;;;;;16.85;100.00;101893.22;5073890;28;20033;-68
2023/08/20 00:33:43;;;;;;;15.65;4.93;;;;;;;16.75;100.00;101903.03;5073939;28;20028;-65
2023/08/20 00:36:08;;;;;;;16.02;4.78;;;;;;;16.68;100.00;101906.63;5073609;28;20052;-65
2023/08/20 00:38:33;;;;;;;17.35;5.03;;;;;;;16.80;100.00;101911.03;5073894;28;20480;-65
2023/08/20 00:40:59;;;;;;;18.42;5.40;;;;;;;16.83;100.00;101919.00;5073514;28;20021;-65
2023/08/20 00:43:24;;;;;;;18.08;4.95;;;;;;;16.82;100.00;101930.56;5074016;28;20052;-66
2023/08/20 00:45:49;;;;;;;16.45;5.10;;;;;;;16.80;100.00;101925.25;5073474;28;20172;-65
2023/08/20 00:48:15;;;;;;;16.85;5.05;;;;;;;16.84;100.00;101931.47;5073664;28;20035;-65
2023/08/20 00:50:41;;;;;;;16.58;5.20;;;;;;;16.87;100.00;101936.81;5073604;28;20062;-65
2023/08/20 00:53:10;;;;;;;19.25;5.47;;;;;;;16.84;100.00;101942.16;5073351;28;20451;-65
2023/08/20 00:55:36;;;;;;;18.58;5.30;;;;;;;16.93;100.00;101946.59;5073181;28;20471;-65
2023/08/20 00:58:02;;;;;;;17.45;5.10;;;;;;;16.99;100.00;101950.09;5073433;28;20031;-65
2023/08/20 01:00:28;;;;;;;18.25;5.20;;;;;;;17.06;100.00;101946.50;5072985;28;20113;-65
2023/08/20 01:02:53;;;;;;;18.27;5.18;;;;;;;17.07;100.00;101950.97;5072058;28;20138;-65
2023/08/20 01:05:19;;;;;;;17.10;5.20;;;;;;;17.17;100.00;101964.28;5072639;28;20040;-65
2023/08/20 01:08:21;;;;;;;17.13;4.93;;;;;;;17.21;100.00;101969.63;5073048;28;20020;-65
2023/08/20 01:10:59;;;;;;;15.75;4.95;;;;;;;17.21;100.00;101974.97;5072694;28;20425;-65
2023/08/20 01:13:24;;;;;;;17.75;5.30;;;;;;;17.28;100.00;101977.59;5069313;28;20020;-65
2023/08/20 01:15:50;;;;;;;17.10;5.38;;;;;;;17.33;100.00;101973.09;5072781;28;20024;-65
2023/08/20 01:18:15;;;;;;;19.80;5.35;;;;;;;17.39;100.00;101976.63;5073162;28;20032;-65
2023/08/20 01:20:47;;;;;;;18.70;5.53;;;;;;;17.54;100.00;101982.78;5071653;28;20029;-65
2023/08/20 01:23:43;;;;;;;17.60;5.50;;;;;;;17.62;100.00;101975.59;5073031;28;20020;-65
2023/08/20 01:26:14;;;;;;;18.13;5.30;;;;;;;17.63;100.00;101963.97;5070885;28;20085;-65
2023/08/20 01:28:40;;;;;;;17.55;5.32;;;;;;;17.64;100.00;101964.88;5072843;28;20066;-65
2023/08/20 01:31:07;;;;;;;17.88;5.50;;;;;;;17.65;100.00;101958.63;5073173;28;20414;-65
2023/08/20 01:33:33;;;;;;;17.63;5.03;;;;;;;17.67;100.00;101967.53;5072924;28;20480;-65
2023/08/20 01:35:59;;;;;;;17.58;5.32;;;;;;;17.75;100.00;101966.56;5072546;28;20047;-65
2023/08/20 01:38:24;;;;;;;16.65;4.93;;;;;;;17.73;100.00;101965.69;5072913;28;20028;-65
2023/08/20 01:40:50;;;;;;;18.58;5.07;;;;;;;17.77;100.00;101967.44;5072985;28;20083;-65
2023/08/20 01:43:15;;;;;;;19.83;5.43;;;;;;;17.76;100.00;101962.97;5072628;28;20020;-65
2023/08/20 01:45:41;;;;;;;19.80;5.15;;;;;;;17.79;100.00;101970.09;5072804;28;20029;-65
2023/08/20 01:48:06;;;;;;;17.13;4.97;;;;;;;17.82;100.00;101969.19;5072586;28;20383;-65
2023/08/20 01:50:33;;;;;;;18.23;4.70;;;;;;;17.78;100.00;101963.00;5072555;28;20028;-65
2023/08/20 01:52:58;;;;;;;17.50;4.68;;;;;;;17.87;100.00;101965.59;5072961;28;20032;-65
2023/08/20 01:55:23;;;;;;;18.35;4.65;;;;;;;17.86;100.00;101982.53;5066926;28;20044;-68
2023/08/20 01:57:49;;;;;;;15.35;4.57;;;;;;;17.86;100.00;101981.66;5072445;28;20042;-67
2023/08/20 02:00:14;;;;;;;17.52;4.53;;;;;;;17.93;100.00;101986.97;5072564;28;20491;-67
2023/08/20 02:02:40;;;;;;;18.02;5.05;;;;;;;17.92;100.00;101986.97;5072392;28;20055;-68
2023/08/20 02:05:05;;;;;;;15.50;4.80;;;;;;;17.94;100.00;101994.09;5072733;28;20035;-67
2023/08/20 02:07:30;;;;;;;18.60;4.80;;;;;;;17.94;100.00;101995.91;5072499;28;20033;-68
2023/08/20 02:09:56;;;;;;;17.42;4.95;;;;;;;17.91;100.00;102001.25;5072399;28;20041;-68
2023/08/20 02:12:21;;;;;;;17.65;4.95;;;;;;;18.00;100.00;102001.19;5072351;28;20436;-67
2023/08/20 02:14:46;;;;;;;17.63;5.00;;;;;;;17.96;100.00;101994.09;5072396;28;20456;-68
2023/08/20 02:17:12;;;;;;;19.20;5.45;;;;;;;17.93;100.00;101997.66;5074099;28;20038;-68
2023/08/20 02:19:38;;;;;;;16.92;4.85;;;;;;;17.88;100.00;101998.56;5076594;28;20479;-68
2023/08/20 02:22:04;;;;;;;19.73;5.40;;;;;;;17.80;100.00;101997.75;5076131;28;20421;-68
2023/08/20 02:24:29;;;;;;;17.67;5.03;;;;;;;17.76;100.00;102004.91;5076520;28;20028;-68
2023/08/20 02:26:55;;;;;;;18.70;5.00;;;;;;;17.80;100.00;102000.44;5076426;28;20016;-68
2023/08/20 02:29:20;;;;;;;16.52;5.20;;;;;;;17.74;100.00;102004.91;5076399;28;20376;-68
2023/08/20 02:31:45;;;;;;;16.65;5.05;;;;;;;17.75;100.00;102012.03;5076072;28;20082;-67
2023/08/20 02:34:11;;;;;;;19.63;5.20;;;;;;;17.73;100.00;102003.13;5076085;28;20058;-67
2023/08/20 02:36:36;;;;;;;17.90;4.75;;;;;;;17.80;100.00;102001.31;5076321;28;20379;-68
2023/08/20 02:39:03;;;;;;;19.75;5.07;;;;;;;17.74;100.00;101999.56;5075882;28;20035;-67
2023/08/20 02:41:29;;;;;;;18.27;5.13;;;;;;;17.66;100.00;101996.03;5074845;28;20017;-68
2023/08/20 02:43:54;;;;;;;16.27;5.10;;;;;;;17.60;100.00;101991.66;5072066;28;20040;-68
2023/08/20 02:46:19;;;;;;;18.73;5.25;;;;;;;17.48;100.00;101993.50;5075671;28;20025;-68
2023/08/20 02:48:44;;;;;;;18.23;5.18;;;;;;;17.30;100.00;101990.06;5076180;28;20036;-67
2023/08/20 02:51:10;;;;;;;16.95;5.10;;;;;;;17.18;100.00;101992.78;5075606;28;20073;-68
2023/08/20 02:53:35;;;;;;;17.48;5.22;;;;;;;17.13;100.00;101994.59;5075834;28;20060;-67
2023/08/20 02:56:00;;;;;;;18.63;5.38;;;;;;;17.02;100.00;101990.19;5075576;28;20032;-67
2023/08/20 02:58:26;;;;;;;18.60;5.45;;;;;;;16.87;100.00;101995.53;5075808;28;20024;-67
2023/08/20 03:00:51;;;;;;;16.38;5.22;;;;;;;16.79;100.00;101995.59;5075532;28;20041;-65
2023/08/20 03:03:16;;;;;;;16.45;5.05;;;;;;;16.79;100.00;101986.66;5075495;28;20522;-65
2023/08/20 03:05:42;;;;;;;17.25;5.65;;;;;;;16.68;100.00;101987.59;5075668;28;20021;-65
2023/08/20 03:08:08;;;;;;;19.02;5.65;;;;;;;16.66;100.00;101984.03;5075893;28;20029;-65
2023/08/20 03:10:34;;;;;;;18.90;5.93;;;;;;;16.58;100.00;101979.63;5075310;28;20029;-65
2023/08/20 03:13:00;;;;;;;17.40;5.72;;;;;;;16.51;100.00;101978.72;5075303;28;20029;-65
2023/08/20 03:15:26;;;;;;;19.50;5.85;;;;;;;16.49;100.00;101985.88;5075469;28;20468;-65
2023/08/20 03:17:52;;;;;;;19.20;6.07;;;;;;;16.39;100.00;101988.53;5075165;28;20094;-65
2023/08/20 03:20:17;;;;;;;18.33;5.90;;;;;;;16.35;100.00;101984.13;5075169;28;20111;-64
2023/08/20 03:22:42;;;;;;;17.75;5.70;;;;;;;16.29;100.00;101984.09;5075496;28;20112;-65
2023/08/20 03:25:08;;;;;;;19.23;6.07;;;;;;;16.28;100.00;101985.03;5075116;28;20024;-65
2023/08/20 03:27:33;;;;;;;17.58;5.78;;;;;;;16.20;100.00;101989.47;5075067;28;20028;-65
2023/08/20 03:29:59;;;;;;;16.50;5.65;;;;;;;16.13;100.00;101988.56;5074825;28;20467;-65
2023/08/20 03:32:24;;;;;;;18.13;6.10;;;;;;;16.10;100.00;101993.03;5074966;28;20450;-64
2023/08/20 03:34:50;;;;;;;18.02;5.90;;;;;;;16.03;100.00;101990.38;5075264;28;20044;-65
2023/08/20 03:37:16;;;;;;;18.77;5.72;;;;;;;15.99;100.00;101985.91;5074879;28;20063;-64
2023/08/20 03:39:41;;;;;;;18.83;6.10;;;;;;;15.95;100.00;101984.13;5074821;28;20060;-65
2023/08/20 03:42:07;;;;;;;16.40;5.50;;;;;;;15.96;100.00;101982.34;5074922;28;20055;-65
2023/08/20 03:44:32;;;;;;;18.23;5.97;;;;;;;15.91;100.00;101986.81;5074764;28;20029;-65
2023/08/20 03:46:58;;;;;;;17.48;5.30;;;;;;;15.85;100.00;101985.91;5075042;28;20086;-65
2023/08/20 03:49:23;;;;;;;17.67;5.50;;;;;;;15.87;100.00;101985.91;5075014;28;20056;-64
2023/08/20 03:51:48;;;;;;;17.33;5.70;;;;;;;15.81;100.00;101996.56;5074942;28;20029;-65
2023/08/20 03:54:14;;;;;;;16.83;5.60;;;;;;;15.71;100.00;102000.09;5074431;28;20082;-65
2023/08/20 03:56:39;;;;;;;18.50;5.68;;;;;;;15.69;100.00;102002.75;5074726;28;20071;-65
2023/08/20 03:59:05;;;;;;;19.58;5.68;;;;;;;15.63;100.00;102008.94;5074306;28;20024;-65
2023/08/20 04:01:31;;;;;;;17.65;5.68;;;;;;;15.58;100.00;102005.41;5073977;28;20048;-65
2023/08/20 04:03:56;;;;;;;15.88;5.72;;;;;;;15.50;100.00;102005.38;5074636;28;20032;-64
2023/08/20 04:06:22;;;;;;;17.75;5.88;;;;;;;15.46;100.00;102016.03;5074562;28;20029;-67
2023/08/20 04:08:47;;;;;;;17.70;5.35;;;;;;;15.44;100.00;102018.69;5074513;28;20463;-67
2023/08/20 04:11:13;;;;;;;18.88;5.78;;;;;;;15.36;100.00;102016.88;5074462;28;20479;-68
2023/08/20 04:13:39;;;;;;;18.15;5.97;;;;;;;15.39;100.00;102017.81;5074072;28;20028;-67
2023/08/20 04:16:05;;;;;;;18.88;5.80;;;;;;;15.42;100.00;102024.88;5074220;28;20056;-68
2023/08/20 04:18:30;;;;;;;17.38;5.68;;;;;;;15.37;100.00;102021.34;5074090;28;20053;-68
2023/08/20 04:20:57;;;;;;;17.95;5.45;;;;;;;15.36;100.00;102024.88;5073998;28;20519;-68
2023/08/20 04:23:22;;;;;;;17.50;5.40;;;;;;;15.38;100.00;102016.00;5072920;28;20483;-69
2023/08/20 04:25:48;;;;;;;18.30;5.50;;;;;;;15.31;100.00;102027.53;5073907;28;20033;-68
2023/08/20 04:28:13;;;;;;;17.80;5.55;;;;;;;15.34;100.00;102023.09;5074221;28;20032;-68
2023/08/20 04:30:38;;;;;;;14.00;4.93;;;;;;;15.34;100.00;102025.75;5074146;28;20032;-68
2023/08/20 04:33:04;;;;;;;17.75;5.28;;;;;;;15.34;100.00;102028.41;5073770;28;20115;-67
2023/08/20 04:35:30;;;;;;;19.15;5.55;;;;;;;15.30;100.00;102025.75;5073677;28;20066;-68
2023/08/20 04:37:55;;;;;;;17.63;5.38;;;;;;;15.25;100.00;102028.41;5069876;28;20475;-68
2023/08/20 04:40:21;;;;;;;16.10;5.13;;;;;;;15.29;100.00;102027.53;5072996;28;20029;-68
2023/08/20 04:42:46;;;;;;;18.52;5.25;;;;;;;15.30;100.00;102025.75;5073866;28;20067;-68
2023/08/20 04:45:12;;;;;;;18.25;5.75;;;;;;;15.28;100.00;102028.41;5073664;28;20360;-67
2023/08/20 04:47:38;;;;;;;17.70;5.97;;;;;;;15.22;100.00;102020.41;5073441;28;20503;-67
2023/08/20 04:50:06;;;;;;;17.50;6.15;;;;;;;15.21;100.00;102023.06;5073439;28;20051;-68
2023/08/20 04:52:32;;;;;;;18.10;5.80;;;;;;;15.16;100.00;102029.25;5073812;28;20040;-67
2023/08/20 04:54:57;;;;;;;16.33;5.22;;;;;;;15.11;100.00;102027.44;5072110;28;20391;-67
2023/08/20 04:57:23;;;;;;;17.30;5.80;;;;;;;15.12;100.00;102037.22;5073293;28;20062;-65
2023/08/20 04:59:48;;;;;;;16.92;5.32;;;;;;;15.08;100.00;102032.75;5073411;28;20028;-65
2023/08/20 05:02:13;;;;;;;16.38;5.57;;;;;;;15.04;100.00;102034.50;5073161;28;20060;-65
2023/08/20 05:04:40;;;;;;;18.40;5.78;;;;;;;15.02;100.00;102038.06;5073314;28;20024;-65
2023/08/20 05:07:05;;;;;;;20.70;6.57;;;;;;;14.98;100.00;102038.06;5073214;28;20103;-65
2023/08/20 05:09:31;;;;;;;20.02;5.72;;;;;;;15.10;100.00;102038.97;5073067;28;20116;-65
2023/08/20 05:11:56;;;;;;;19.13;6.00;;;;;;;15.15;100.00;102043.44;5073277;28;20024;-65
2023/08/20 05:14:22;;;;;;;17.10;6.10;;;;;;;15.15;100.00;102043.44;5073020;28;20044;-65
2023/08/20 05:16:47;;;;;;;18.70;6.13;;;;;;;15.26;100.00;102040.84;5072922;28;20039;-66
2023/08/20 05:19:12;;;;;;;19.90;6.00;;;;;;;15.24;100.00;102049.69;5073151;28;20031;-65
2023/08/20 05:21:38;;;;;;;23.65;6.22;;;;;;;15.27;100.00;102045.25;5072829;28;20036;-65
2023/08/20 05:24:04;;;;;;;20.08;6.10;;;;;;;15.28;100.00;102048.84;5072854;28;20107;-65
2023/08/20 05:26:29;;;;;;;17.30;5.90;;;;;;;15.28;100.00;102052.38;5073106;28;20025;-65
2023/08/20 05:28:54;;;;;;;18.67;5.80;;;;;;;15.34;100.00;102051.50;5072772;28;20383;-65
2023/08/20 05:31:20;;;;;;;16.50;5.85;;;;;;;15.40;100.00;102058.66;5071526;28;20037;-65
2023/08/20 05:33:45;;;;;;;19.52;6.22;;;;;;;15.51;100.00;102063.13;5072933;28;20099;-65
2023/08/20 05:36:10;;;;;;;19.73;7.35;;;;;;;15.64;100.00;102058.72;5072926;28;20074;-65
2023/08/20 05:38:36;;;;;;;19.27;6.45;;;;;;;15.65;100.00;102064.94;5071623;28;20131;-65
2023/08/20 05:41:01;;;;;;;18.77;7.05;;;;;;;15.71;100.00;102056.94;5072672;28;20025;-65
2023/08/20 05:43:26;;;;;;;20.27;7.10;;;;;;;15.74;100.00;102061.41;5072712;28;20103;-67
2023/08/20 05:45:52;;;;;;;19.80;7.15;;;;;;;15.81;100.00;102063.22;5072785;28;20492;-68
2023/08/20 05:48:17;;;;;;;18.30;7.30;;;;;;;15.89;100.00;102063.22;5072545;28;20380;-68
2023/08/20 05:50:42;;;;;;;19.25;6.93;;;;;;;15.98;100.00;102063.25;5072598;28;20028;-68
2023/08/20 05:53:08;;;;;;;22.85;7.72;;;;;;;16.03;100.00;102058.81;5072409;28;20104;-66
2023/08/20 05:55:34;;;;;;;19.70;7.90;;;;;;;16.09;100.00;102068.59;5072482;28;20063;-68
2023/08/20 05:57:59;;;;;;;20.25;8.30;;;;;;;16.15;100.00;102071.25;5072458;28;20075;-68
2023/08/20 06:00:24;;;;;;;19.95;8.10;;;;;;;16.24;100.00;102057.03;5072777;28;20025;-68
2023/08/20 06:02:50;;;;;;;21.95;8.85;;;;;;;16.30;100.00;102065.06;5072392;28;20487;-68
2023/08/20 06:05:15;;;;;;;20.35;9.10;;;;;;;16.41;100.00;102063.28;5071234;28;20486;-68
2023/08/20 06:07:41;;;;;;;20.92;9.73;;;;;;;16.48;100.00;102059.69;5072550;28;20430;-67
2023/08/20 06:10:07;;;;;;;21.02;9.60;;;;;;;16.58;100.00;102054.34;5072389;28;20062;-67
2023/08/20 06:12:33;;;;;;;23.30;9.25;;;;;;;16.62;100.00;102050.78;5072214;28;20039;-68
2023/08/20 06:14:59;;;;;;;22.50;9.77;;;;;;;16.64;100.00;102055.22;5072442;28;20039;-68
2023/08/20 06:17:24;;;;;;;21.88;9.63;;;;;;;16.72;100.00;102057.91;5072341;28;20108;-68
2023/08/20 06:19:49;;;;;;;22.70;9.57;;;;;;;16.75;100.00;102063.22;5072400;28;20025;-68
2023/08/20 06:22:15;;;;;;;22.92;9.93;;;;;;;16.80;100.00;102055.19;5072188;28;20413;-68
2023/08/20 06:24:40;;;;;;;23.50;10.88;;;;;;;16.88;100.00;102059.66;5072456;28;20055;-66
2023/08/20 06:27:05;;;;;;;23.55;10.63;;;;;;;16.94;100.00;102056.09;5072675;28;20033;-65
2023/08/20 06:29:31;;;;;;;23.98;10.57;;;;;;;17.03;100.00;102058.72;5072546;28;20037;-65
2023/08/20 06:31:56;;;;;;;21.88;9.68;;;;;;;17.10;100.00;102061.41;5072379;28;20067;-65
2023/08/20 06:34:22;;;;;;;23.48;10.18;;;;;;;17.14;100.00;102064.03;5072449;28;20032;-65
2023/08/20 06:36:47;;;;;;;21.70;9.23;;;;;;;17.23;100.00;102069.34;5072098;28;20060;-65
2023/08/20 06:39:15;;;;;;;22.80;9.10;;;;;;;17.32;100.00;102063.06;5072339;28;20029;-66
2023/08/20 06:41:40;;;;;;;23.40;9.30;;;;;;;17.41;100.00;102060.34;5072250;28;20491;-65
2023/08/20 06:44:06;;;;;;;23.83;9.27;;;;;;;17.54;100.00;102061.16;5072079;28;20102;-65
2023/08/20 06:46:31;;;;;;;23.33;9.48;;;;;;;17.59;100.00;102063.81;5072035;28;20390;-65
2023/08/20 06:48:56;;;;;;;24.33;9.95;;;;;;;17.62;100.00;102058.47;5071007;28;20067;-64
2023/08/20 06:51:22;;;;;;;24.60;10.20;;;;;;;17.68;100.00;102063.78;5072020;28;20068;-65
2023/08/20 06:53:51;;;;;;;22.05;9.48;;;;;;;17.75;100.00;102068.19;5070730;28;20496;-65
2023/08/20 06:56:16;;;;;;;23.20;10.02;;;;;;;17.80;100.00;102070.84;5072155;28;20028;-65
2023/08/20 06:58:42;;;;;;;22.55;9.73;;;;;;;17.83;100.00;102061.91;5071882;28;20489;-66
2023/08/20 07:01:08;;;;;;;23.83;9.90;;;;;;;17.86;100.00;102059.22;5071712;28;20056;-65
2023/08/20 07:03:38;;;;;;;22.98;9.98;;;;;;;17.93;100.00;102060.97;5072768;28;20047;-66
2023/08/20 07:06:03;;;;;;;22.70;9.82;;;;;;;18.00;100.00;102069.84;5075500;28;20029;-65
2023/08/20 07:08:29;;;;;;;23.02;8.90;;;;;;;18.07;100.00;102060.84;5075395;28;20468;-66
2023/08/20 07:10:54;;;;;;;21.50;9.00;;;;;;;18.14;100.00;102072.41;5066724;28;20027;-65
2023/08/20 07:13:20;;;;;;;21.95;8.40;;;;;;;18.20;100.00;102069.69;5075300;28;20028;-65
2023/08/20 07:15:45;;;;;;;20.27;7.80;;;;;;;18.27;100.00;102068.75;5075268;28;20025;-65
2023/08/20 07:18:13;;;;;;;21.83;8.35;;;;;;;18.34;100.00;102075.81;5075112;28;20044;-65
2023/08/20 07:20:39;;;;;;;21.73;8.80;;;;;;;18.39;100.00;102071.31;5075072;28;20115;-65
2023/08/20 07:23:04;;;;;;;21.60;8.20;;;;;;;18.43;100.00;102074.84;5075064;28;20496;-65
2023/08/20 07:25:30;;;;;;;21.70;8.75;;;;;;;18.43;100.00;102070.38;5075132;28;20032;-65
2023/08/20 07:27:59;;;;;;;21.48;8.15;;;;;;;18.50;100.00;102079.25;5075035;28;20021;-65
2023/08/20 07:30:27;;;;;;;19.70;6.90;;;;;;;18.59;100.00;102075.59;5075484;28;20112;-65
2023/08/20 07:32:52;;;;;;;21.75;7.50;;;;;;;18.65;100.00;102072.84;5075144;28;20024;-65
2023/08/20 07:35:18;;;;;;;21.63;7.22;;;;;;;18.70;100.00;102072.78;5075124;28;20537;-65
2023/08/20 07:37:43;;;;;;;20.75;7.45;;;;;;;18.74;100.00;102070.09;5071326;28;20028;-65
2023/08/20 07:40:09;;;;;;;20.73;6.95;;;;;;;18.83;100.00;102077.16;5074907;28;20391;-65
2023/08/20 07:42:36;;;;;;;20.58;6.50;;;;;;;18.86;100.00;102077.16;5075082;28;20380;-65
2023/08/20 07:45:02;;;;;;;20.15;7.13;;;;;;;18.94;100.00;102072.56;5074917;28;20034;-65
2023/08/20 07:47:28;;;;;;;19.92;6.55;;;;;;;19.04;100.00;102072.50;5074693;28;20127;-65
2023/08/20 07:49:54;;;;;;;20.60;6.53;;;;;;;19.09;100.00;102071.53;5074730;28;20070;-65
2023/08/20 07:52:20;;;;;;;18.70;6.15;;;;;;;19.13;100.00;102078.63;5074992;28;20032;-65
2023/08/20 07:54:45;;;;;;;21.05;5.90;;;;;;;19.23;100.00;102083.88;5074823;28;20073;-65
2023/08/20 07:57:10;;;;;;;18.67;5.75;;;;;;;19.34;100.00;102090.00;5074507;28;20380;-65
2023/08/20 07:59:36;;;;;;;19.33;6.35;;;;;;;19.44;100.00;102088.97;5073347;28;20480;-65
2023/08/20 08:02:01;;;;;;;17.73;5.50;;;;;;;19.49;100.00;102087.09;5074253;28;20123;-65
2023/08/20 08:04:27;;;;;;;19.60;5.70;;;;;;;19.59;100.00;102087.88;5074630;28;20037;-65
2023/08/20 08:06:52;;;;;;;17.98;5.40;;;;;;;19.66;100.00;102091.38;5074796;28;20025;-65
2023/08/20 08:09:25;;;;;;;19.15;5.47;;;;;;;19.74;100.00;102091.25;5074335;28;20062;-68
2023/08/20 08:11:51;;;;;;;17.30;5.40;;;;;;;19.94;100.00;102085.63;5071449;28;20384;-68
2023/08/20 08:14:17;;;;;;;19.30;6.10;;;;;;;20.53;100.00;102094.50;5074145;28;20028;-68
2023/08/20 08:16:43;;;;;;;20.55;6.20;;;;;;;21.25;100.00;102091.38;5074152;28;20502;-68
2023/08/20 08:19:08;;;;;;;16.42;5.00;;;;;;;21.89;100.00;102096.31;5074121;28;20036;-68
2023/08/20 08:21:34;;;;;;;17.30;4.75;;;;;;;22.29;100.00;102101.59;5074164;28;20025;-68
2023/08/20 08:23:59;;;;;;;18.70;5.50;;;;;;;22.50;100.00;102102.00;5073907;28;20430;-69
2023/08/20 08:26:24;;;;;;;18.83;5.20;;;;;;;22.87;100.00;102102.84;5074079;28;20098;-68
2023/08/20 08:28:50;;;;;;;16.38;5.20;;;;;;;23.21;100.00;102092.03;5074056;28;20383;-68
2023/08/20 08:31:15;;;;;;;17.05;5.20;;;;;;;23.55;100.00;102095.50;5073855;28;20039;-69
2023/08/20 08:33:40;;;;;;;18.98;5.45;;;;;;;24.17;100.00;102095.38;5073993;28;20059;-69
2023/08/20 08:36:06;;;;;;;18.65;5.65;;;;;;;24.70;100.00;102102.59;5073884;28;20036;-69
2023/08/20 08:38:31;;;;;;;15.60;4.97;;;;;;;25.01;100.00;102101.50;5074081;28;20498;-69
2023/08/20 08:40:57;;;;;;;16.95;4.90;;;;;;;25.08;100.00;102109.38;5074156;28;20071;-68
2023/08/20 08:43:22;;;;;;;17.65;4.60;;;;;;;25.05;100.00;102102.28;5073652;28;20029;-68
2023/08/20 08:45:50;;;;;;;16.85;4.90;;;;;;;24.94;100.00;102108.06;5073764;28;20028;-69
2023/08/20 08:48:16;;;;;;;16.40;4.90;;;;;;;24.92;100.00;102099.13;5069932;28;20081;-69
2023/08/20 08:50:43;;;;;;;16.50;4.70;;;;;;;24.91;100.00;102108.19;5073812;28;20074;-69
2023/08/20 08:53:10;;;;;;;14.98;4.60;;;;;;;25.28;100.00;102101.44;5073461;28;20059;-69
2023/08/20 08:55:35;;;;;;;15.82;4.75;;;;;;;25.54;100.00;102104.97;5073748;28;20474;-66
2023/08/20 08:58:01;;;;;;;17.42;4.45;;;;;;;25.73;100.00;102105.13;5073343;28;20028;-66
2023/08/20 09:00:26;;;;;;;17.30;5.13;;;;;;;26.19;100.00;102108.72;5073355;28;20060;-65
2023/08/20 09:02:51;;;;;;;17.10;5.40;;;;;;;27.00;100.00;102116.13;5073447;28;20454;-66
2023/08/20 09:05:17;;;;;;;17.13;5.28;;;;;;;27.60;100.00;102116.13;5073329;28;20056;-67
2023/08/20 09:07:44;;;;;;;17.27;5.47;;;;;;;27.89;88.31;102119.22;5073153;28;20025;-66
2023/08/20 09:10:10;;;;;;;18.30;5.47;;;;;;;27.93;91.22;102118.13;5073321;28;20040;-67
2023/08/20 09:12:36;;;;;;;17.35;5.18;;;;;;;28.38;89.03;102116.81;5073013;28;20032;-65
2023/08/20 09:15:01;;;;;;;16.38;4.88;;;;;;;28.67;79.25;102128.97;5072946;28;20039;-66
2023/08/20 09:17:28;;;;;;;16.13;4.70;;;;;;;28.92;75.62;102119.53;5073489;28;20028;-66
2023/08/20 09:19:56;;;;;;;14.77;4.57;;;;;;;28.63;72.78;102121.03;5073338;28;20029;-66
2023/08/20 09:22:22;;;;;;;14.45;4.05;;;;;;;27.90;91.10;102110.13;5073120;28;20031;-66
2023/08/20 09:24:56;;;;;;;15.93;4.65;;;;;;;27.18;89.36;102119.84;5073188;28;20025;-66
2023/08/20 09:27:22;;;;;;;15.55;4.35;;;;;;;27.24;93.70;102111.41;5069272;28;20032;-67
2023/08/20 09:29:53;;;;;;;13.45;3.83;;;;;;;28.39;77.81;102120.44;5072842;28;20448;-66
2023/08/20 09:32:20;;;;;;;12.83;3.40;;;;;;;29.06;69.72;102118.75;5069520;28;20024;-67
2023/08/20 09:34:47;;;;;;;12.85;3.40;;;;;;;29.44;65.69;102117.66;5068676;28;20028;-67
2023/08/20 09:37:13;;;;;;;14.93;3.60;;;;;;;29.75;64.32;102130.41;5072709;28;20085;-65
2023/08/20 09:39:39;;;;;;;10.60;2.70;;;;;;;29.87;61.66;102127.03;5072920;28;20064;-66
2023/08/20 09:42:09;;;;;;;11.90;2.63;;;;;;;30.22;57.80;102126.81;5072639;28;20428;-66
2023/08/20 09:44:45;;;;;;;7.20;2.00;;;;;;;30.43;52.14;102127.41;5072633;28;20036;-65
2023/08/20 09:47:12;;;;;;;8.10;1.90;;;;;;;30.74;50.76;102127.41;5072589;28;20028;-66
2023/08/20 09:49:42;;;;;;;5.75;1.70;;;;;;;31.53;49.88;102120.69;5072850;28;20025;-65
2023/08/20 09:52:09;;;;;;;6.22;2.10;;;;;;;31.89;46.22;102132.94;5072606;28;20028;-65
2023/08/20 09:54:46;;;;;;;9.93;2.22;;;;;;;33.05;48.47;102129.69;5072452;28;20052;-66
2023/08/20 09:57:22;;;;;;;5.47;1.60;;;;;;;32.39;44.96;102136.03;5072567;28;20074;-66
2023/08/20 09:59:48;;;;;;;4.13;1.50;;;;;;;31.97;44.89;102136.03;5068993;28;20457;-66
2023/08/20 10:02:14;;;;;;;4.65;1.38;;;;;;;31.96;41.48;102133.41;5072323;28;20045;-66
2023/08/20 10:04:42;;;;;;;4.03;1.52;;;;;;;31.59;44.71;102124.91;5072674;28;20387;-66
2023/08/20 10:07:07;;;;;;;4.80;1.50;;;;;;;32.32;45.61;102130.06;5072914;28;20028;-66
2023/08/20 10:09:33;;;;;;;7.78;1.90;;;;;;;33.14;43.69;102123.53;5072329;28;20486;-66
2023/08/20 10:11:58;;;;;;;3.78;1.60;;;;;;;32.99;40.91;102125.53;5072341;28;20036;-66
2023/08/20 10:14:24;;;;;;;2.67;1.30;;;;;;;32.17;41.21;102125.66;5072581;28;20447;-66
2023/08/20 10:16:49;;;;;;;4.38;1.48;;;;;;;32.79;40.75;102135.16;5072373;28;20033;-66
2023/08/20 10:19:16;;;;;;;6.43;1.70;;;;;;;33.64;40.25;102124.50;5072618;28;20021;-66
2023/08/20 10:21:46;;;;;;;5.25;1.50;;;;;;;34.36;40.20;102128.31;5072386;28;20033;-66
2023/08/20 10:24:18;;;;;;;3.85;1.45;;;;;;;33.98;40.15;102127.47;5072220;28;20483;-66
2023/08/20 10:26:45;;;;;;;5.65;1.70;;;;;;;34.79;37.22;102124.13;5072246;28;20107;-66
2023/08/20 10:29:39;;;;;;;2.60;1.50;;;;;;;35.96;38.18;102131.16;5072448;28;20488;-66
2023/08/20 10:32:08;;;;;;;7.60;1.50;;;;;;;35.92;36.79;102126.91;5070823;28;20046;-66
2023/08/20 10:34:35;;;;;;;4.47;1.48;;;;;;;36.44;34.90;102133.50;5072557;28;20044;-66
2023/08/20 10:37:03;;;;;;;5.93;1.80;;;;;;;36.73;33.88;102130.09;5072144;28;20028;-67
2023/08/20 10:39:29;;;;;;;5.50;1.60;;;;;;;36.62;34.06;102124.66;5074224;28;20039;-67
2023/08/20 10:42:28;;;;;;;6.72;1.70;;;;;;;37.24;35.77;102127.47;5076209;28;20467;-67
2023/08/20 10:45:08;;;;;;;6.35;1.50;;;;;;;37.19;32.58;102132.56;5072924;28;20020;-66
2023/08/20 10:47:41;;;;;;;6.15;1.52;;;;;;;36.75;32.52;102135.47;5075857;28;20028;-66
2023/08/20 10:50:10;;;;;;;3.95;1.27;;;;;;;36.88;31.25;102135.28;5076007;28;20038;-67
2023/08/20 10:52:39;;;;;;;6.82;1.55;;;;;;;37.32;31.05;102128.56;5075755;28;20067;-66
2023/08/20 10:55:07;;;;;;;7.15;1.70;;;;;;;37.02;32.34;102132.19;5075691;28;20035;-66
2023/08/20 10:57:34;;;;;;;3.35;1.45;;;;;;;37.35;30.82;102124.66;5076011;28;20443;-66
2023/08/20 11:00:05;;;;;;;5.95;1.60;;;;;;;37.84;30.42;102128.47;5075608;28;20038;-66
2023/08/20 11:02:32;;;;;;;5.72;1.70;;;;;;;38.10;31.80;102127.94;5075378;28;20087;-66
2023/08/20 11:04:58;;;;;;;5.03;1.77;;;;;;;38.12;32.45;102125.03;5075511;28;20040;-67
2023/08/20 11:07:26;;;;;;;9.30;1.75;;;;;;;37.89;30.38;102124.44;5074360;28;20028;-67
2023/08/20 11:09:53;;;;;;;7.03;1.70;;;;;;;38.15;31.83;102125.59;5075493;28;20526;-67